Time;durP1;ratioP1;P1;durP2;ratioP2;P2;SDS_P1;SDS_P2;PMS_P1;PMS_P2;Temp;Humidity;BMP_temperature;BMP_pressure;BME280_temperature;BME280_humidity;BME280_pressure;Samples;Min_cycle;Max_cycle;Signal;HPM_P1;HPM_P2
2021/01/28 00:02:58;;;;;;;2.60;2.30;;;2.40;98.50;;;;;;6218278;28;20467;-76
2021/01/28 00:05:59;;;;;;;2.78;2.50;;;2.40;98.20;;;;;;6218820;28;20471;-77
2021/01/28 00:08:59;;;;;;;3.40;2.40;;;3.30;98.80;;;;;;6218822;28;20057;-76
2021/01/28 00:12:00;;;;;;;2.47;2.28;;;2.40;98.50;;;;;;6224719;28;20419;-76
2021/01/28 00:15:01;;;;;;;2.63;2.22;;;2.40;98.30;;;;;;6243630;28;20490;-76
2021/01/28 00:18:02;;;;;;;4.22;2.80;;;2.40;98.20;;;;;;6231362;28;20030;-77
2021/01/28 00:21:03;;;;;;;4.10;3.05;;;2.40;98.30;;;;;;6202675;28;20048;-77
2021/01/28 00:24:04;;;;;;;2.63;2.33;;;2.40;98.10;;;;;;6220064;28;20030;-76
2021/01/28 00:27:04;;;;;;;3.60;2.65;;;2.40;98.30;;;;;;6201852;28;20044;-77
2021/01/28 00:30:07;;;;;;;3.17;2.50;;;2.40;98.10;;;;;;6220138;28;20498;-76
2021/01/28 00:33:08;;;;;;;;;;;2.30;97.70;;;;;;6202781;28;20128;-77
2021/01/28 00:36:09;;;;;;;2.65;2.20;;;2.90;98.50;;;;;;6218329;28;19909;-76
2021/01/28 00:39:09;;;;;;;2.65;2.38;;;2.40;98.30;;;;;;6202077;28;20529;-76
2021/01/28 00:42:10;;;;;;;3.03;2.72;;;2.30;98.40;;;;;;6218378;28;20034;-76
2021/01/28 00:45:11;;;;;;;3.72;3.22;;;2.90;98.50;;;;;;6218178;28;20096;-77
2021/01/28 00:48:12;;;;;;;3.05;2.75;;;2.30;97.80;;;;;;6202124;28;20092;-77
2021/01/28 00:51:12;;;;;;;3.58;2.78;;;2.60;98.70;;;;;;6218521;28;20034;-77
2021/01/28 00:54:13;;;;;;;3.53;2.30;;;3.20;98.80;;;;;;6219477;28;20121;-76
2021/01/28 00:57:14;;;;;;;2.75;2.42;;;2.90;98.90;;;;;;6200870;28;20069;-76
2021/01/28 01:00:15;;;;;;;2.35;2.15;;;2.40;98.80;;;;;;6201505;28;20033;-76
2021/01/28 01:03:17;;;;;;;2.42;2.22;;;2.40;98.20;;;;;;6219497;28;20471;-77
2021/01/28 01:06:18;;;;;;;2.90;2.20;;;2.40;98.60;;;;;;6201721;28;20033;-76
2021/01/28 01:09:18;;;;;;;2.75;2.55;;;3.20;98.70;;;;;;6218951;28;20049;-77
2021/01/28 01:12:19;;;;;;;2.47;2.28;;;3.10;98.60;;;;;;6201433;28;20022;-76
2021/01/28 01:15:20;;;;;;;2.97;2.40;;;3.40;98.60;;;;;;6236745;28;21089;-76
2021/01/28 01:18:25;;;;;;;2.63;2.40;;;2.90;98.60;;;;;;6208297;28;20075;-75
2021/01/28 01:21:26;;;;;;;2.50;2.30;;;2.90;98.60;;;;;;6208843;28;20025;-77
2021/01/28 01:24:27;;;;;;;2.42;2.20;;;2.10;98.30;;;;;;6224517;28;20485;-78
2021/01/28 01:27:27;;;;;;;2.05;1.77;;;2.80;98.50;;;;;;6242124;28;20072;-77
2021/01/28 01:30:28;;;;;;;2.60;1.80;;;3.30;99.10;;;;;;6242421;28;20038;-77
2021/01/28 01:33:29;;;;;;;2.80;2.40;;;2.80;98.90;;;;;;6208089;28;20128;-77
2021/01/28 01:36:29;;;;;;;4.55;2.38;;;3.30;98.80;;;;;;6204996;28;20925;-76
2021/01/28 01:39:30;;;;;;;2.63;2.20;;;2.80;98.70;;;;;;6201655;28;20030;-76
2021/01/28 01:42:31;;;;;;;2.50;2.30;;;2.80;98.80;;;;;;6218737;28;20141;-76
2021/01/28 01:45:38;;;;;;;2.63;2.35;;;2.80;98.60;;;;;;6201098;28;20140;-77
2021/01/28 01:48:46;;;;;;;2.42;2.22;;;2.90;98.50;;;;;;6219647;28;20030;-76
2021/01/28 01:51:46;;;;;;;2.67;2.17;;;2.40;97.00;;;;;;6208704;28;20501;-76
2021/01/28 01:54:47;;;;;;;2.17;1.95;;;2.30;99.90;;;;;;6208298;28;20030;-77
2021/01/28 01:57:47;;;;;;;2.20;2.10;;;2.30;99.90;;;;;;6224392;28;20037;-76
2021/01/28 02:00:48;;;;;;;2.20;2.00;;;2.30;99.90;;;;;;6207827;28;20048;-78
2021/01/28 02:03:49;;;;;;;3.63;1.88;;;;;;;;;;6207986;28;20167;-76
2021/01/28 02:06:52;;;;;;;1.77;1.70;;;2.20;99.90;;;;;;6224354;28;20384;-78
2021/01/28 02:09:53;;;;;;;3.45;2.00;;;;;;;;;;6223248;28;20088;-77
2021/01/28 02:12:54;;;;;;;2.30;2.10;;;2.20;99.90;;;;;;6245018;28;20025;-76
2021/01/28 02:15:55;;;;;;;2.28;1.80;;;3.30;99.90;;;;;;6245626;28;20037;-76
2021/01/28 02:18:56;;;;;;;2.05;1.90;;;2.80;99.00;;;;;;6228528;28;20048;-77
2021/01/28 02:21:59;;;;;;;1.90;1.80;;;2.50;98.80;;;;;;6229104;28;20100;-77
2021/01/28 02:25:18;;;;;;;2.33;1.90;;;2.60;98.80;;;;;;6228502;28;20057;-77
2021/01/28 02:28:19;;;;;;;1.92;1.70;;;3.00;99.10;;;;;;6244797;28;20112;-77
2021/01/28 02:31:19;;;;;;;2.05;1.85;;;3.40;99.20;;;;;;6244743;28;20032;-76
2021/01/28 02:34:20;;;;;;;2.10;1.90;;;3.30;99.00;;;;;;6228196;28;20101;-76
2021/01/28 02:37:21;;;;;;;2.45;2.03;;;3.10;98.90;;;;;;6244936;28;20057;-76
2021/01/28 02:40:23;;;;;;;2.75;2.08;;;2.90;99.00;;;;;;6227934;28;20046;-78
2021/01/28 02:43:24;;;;;;;2.37;2.03;;;2.80;98.80;;;;;;6245836;28;20083;-77
2021/01/28 02:46:26;;;;;;;2.85;2.53;;;2.70;98.80;;;;;;6244222;28;20109;-77
2021/01/28 02:49:26;;;;;;;2.53;2.13;;;2.60;98.60;;;;;;6244272;28;20033;-76
2021/01/28 02:52:27;;;;;;;1.77;1.67;;;3.10;98.50;;;;;;6244150;28;20442;-77
2021/01/28 02:55:29;;;;;;;2.40;2.17;;;2.60;98.70;;;;;;6245370;28;20032;-76
2021/01/28 02:58:30;;;;;;;2.15;2.00;;;3.00;98.70;;;;;;6244208;28;20116;-77
2021/01/28 03:01:31;;;;;;;2.40;2.20;;;3.30;98.70;;;;;;6227619;28;20055;-78
2021/01/28 03:04:32;;;;;;;2.70;2.40;;;2.60;98.60;;;;;;6227404;28;20045;-77
2021/01/28 03:07:32;;;;;;;2.55;2.35;;;3.10;98.50;;;;;;6236524;28;20152;-76
2021/01/28 03:10:33;;;;;;;3.70;2.60;;;2.60;98.40;;;;;;6242473;28;20032;-77
2021/01/28 03:13:34;;;;;;;2.08;1.92;;;3.30;98.70;;;;;;6220121;28;20041;-77
2021/01/28 03:16:34;;;;;;;2.22;2.00;;;3.20;98.60;;;;;;6204162;28;20022;-76
2021/01/28 03:19:35;;;;;;;2.05;1.95;;;3.30;99.30;;;;;;6199238;28;20030;-77
2021/01/28 03:22:37;;;;;;;2.15;1.95;;;3.00;99.00;;;;;;6226627;28;20036;-76
2021/01/28 03:25:37;;;;;;;1.65;1.55;;;2.60;98.70;;;;;;6203695;28;20037;-76
2021/01/28 03:28:38;;;;;;;2.53;1.95;;;2.70;99.30;;;;;;6203860;28;20057;-76
2021/01/28 03:31:39;;;;;;;1.80;1.70;;;2.70;98.80;;;;;;6221860;28;20033;-76
2021/01/28 03:34:40;;;;;;;2.05;1.95;;;3.40;98.70;;;;;;6187186;28;20026;-76
2021/01/28 03:37:40;;;;;;;4.20;2.10;;;2.70;98.60;;;;;;6203751;28;20069;-77
2021/01/28 03:40:41;;;;;;;2.72;2.53;;;3.30;98.90;;;;;;6203186;28;20080;-76
2021/01/28 03:43:42;;;;;;;2.08;1.70;;;3.30;98.60;;;;;;6221084;28;20502;-78
2021/01/28 03:46:42;;;;;;;2.80;2.20;;;2.60;98.50;;;;;;6203665;28;20049;-76
2021/01/28 03:49:43;;;;;;;3.25;2.10;;;3.00;98.70;;;;;;6187225;28;20025;-77
2021/01/28 03:52:44;;;;;;;2.78;2.00;;;2.60;98.80;;;;;;6203527;28;20029;-77
2021/01/28 03:55:44;;;;;;;3.33;2.58;;;3.20;99.10;;;;;;6210265;28;20029;-76
2021/01/28 03:58:45;;;;;;;2.13;1.92;;;3.00;98.90;;;;;;6203376;28;20049;-77
2021/01/28 04:01:45;;;;;;;2.30;2.10;;;3.30;99.10;;;;;;6220369;28;20026;-77
2021/01/28 04:04:46;;;;;;;4.32;2.53;;;3.10;98.90;;;;;;6186412;28;20136;-77
2021/01/28 04:07:47;;;;;;;4.10;2.40;;;2.90;99.00;;;;;;6202388;28;20054;-76
2021/01/28 04:10:47;;;;;;;2.35;2.03;;;2.90;98.90;;;;;;6186948;28;20030;-77
2021/01/28 04:13:48;;;;;;;2.60;2.03;;;2.70;99.10;;;;;;6220048;28;20030;-77
2021/01/28 04:16:49;;;;;;;7.18;2.20;;;3.20;98.90;;;;;;6202563;28;20040;-78
2021/01/28 04:19:49;;;;;;;5.20;3.00;;;2.70;98.30;;;;;;6186011;28;20514;-76
2021/01/28 04:22:50;;;;;;;8.50;5.18;;;2.80;99.90;;;;;;6219895;28;20124;-76
2021/01/28 04:25:51;;;;;;;4.68;2.95;;;2.80;99.90;;;;;;6186317;28;20037;-77
2021/01/28 04:28:52;;;;;;;4.28;2.33;;;2.70;99.90;;;;;;6202316;28;20022;-77
2021/01/28 04:31:52;;;;;;;3.30;2.60;;;2.70;99.90;;;;;;6202498;28;20021;-78
2021/01/28 04:34:54;;;;;;;3.33;2.17;;;2.80;99.90;;;;;;6219727;28;20034;-77
2021/01/28 04:37:54;;;;;;;3.15;2.50;;;2.70;99.90;;;;;;6186393;28;20030;-77
2021/01/28 04:41:17;;;;;;;3.67;2.72;;;2.70;99.90;;;;;;6185938;28;20072;-77
2021/01/28 04:44:18;;;;;;;4.30;2.90;;;;;;;;;;6202035;28;20471;-78
2021/01/28 04:47:19;;;;;;;3.20;2.40;;;2.60;99.90;;;;;;6219544;28;20037;-76
2021/01/28 04:50:23;;;;;;;6.32;2.80;;;2.80;99.90;;;;;;6185763;28;20076;-77
2021/01/28 04:53:37;;;;;;;4.53;2.92;;;2.70;99.90;;;;;;6186183;28;20083;-76
2021/01/28 04:56:38;;;;;;;2.83;2.38;;;;;;;;;;6193412;28;20033;-77
2021/01/28 04:59:42;;;;;;;3.90;2.75;;;2.70;99.90;;;;;;6243005;28;20383;-77
2021/01/28 05:02:43;;;;;;;3.13;2.22;;;2.80;98.80;;;;;;6193490;28;20034;-77
2021/01/28 05:05:44;;;;;;;4.10;2.85;;;3.00;98.90;;;;;;6201681;28;20026;-78
2021/01/28 05:08:44;;;;;;;4.20;2.50;;;3.10;99.00;;;;;;6187947;28;21153;-76
2021/01/28 05:11:56;;;;;;;6.43;3.97;;;3.40;99.20;;;;;;6201740;28;20522;-78
2021/01/28 05:15:15;;;;;;;3.15;2.50;;;3.70;99.70;;;;;;6201516;28;20498;-77
2021/01/28 05:18:28;;;;;;;3.00;2.53;;;2.90;99.90;;;;;;6218907;28;20038;-77
2021/01/28 05:21:30;;;;;;;;;;;2.90;99.90;;;;;;6219888;28;20531;-77
2021/01/28 05:24:48;;;;;;;4.65;4.15;;;3.20;99.90;;;;;;6217428;28;20297;-77
2021/01/28 05:27:49;;;;;;;4.45;3.13;;;;;;;;;;6217974;28;20364;-77
2021/01/28 05:30:50;;;;;;;5.00;4.18;;;2.80;99.90;;;;;;6217571;28;20037;-76
2021/01/28 05:33:51;;;;;;;4.93;3.83;;;3.30;98.80;;;;;;6218088;28;20540;-77
2021/01/28 05:37:02;;;;;;;9.20;8.40;;;2.90;99.00;;;;;;6217663;28;20034;-77
2021/01/28 05:40:15;;;;;;;3.78;3.30;;;2.90;99.00;;;;;;6213175;28;20037;-78
2021/01/28 05:43:30;;;;;;;4.93;3.17;;;2.90;98.80;;;;;;6243147;28;20149;-76
2021/01/28 05:46:30;;;;;;;4.45;4.05;;;2.80;97.70;;;;;;6247683;28;20033;-77
2021/01/28 05:49:31;;;;;;;3.67;2.90;;;2.80;99.20;;;;;;6229419;28;20033;-78
2021/01/28 05:52:32;;;;;;;4.03;3.00;;;3.30;99.00;;;;;;6205916;28;20030;-78
2021/01/28 05:55:33;;;;;;;5.53;3.20;;;3.30;99.30;;;;;;6222205;28;20037;-77
2021/01/28 05:58:49;;;;;;;3.30;2.95;;;3.00;99.50;;;;;;6222186;28;20026;-77
2021/01/28 06:02:02;;;;;;;4.97;3.08;;;3.10;99.30;;;;;;6206338;28;20022;-78
2021/01/28 06:05:10;;;;;;;8.05;3.25;;;2.90;98.20;;;;;;6207030;28;20072;-77
2021/01/28 06:08:56;;;;;;;5.20;3.65;;;3.00;99.20;;;;;;6205645;28;20160;-77
2021/01/28 06:12:24;;;;;;;6.07;4.50;;;2.90;97.90;;;;;;6136565;29;20031;-77
2021/01/28 06:15:29;;;;;;;3.97;3.00;;;2.90;98.00;;;;;;6154785;28;20035;-77
2021/01/28 06:18:55;;;;;;;5.50;3.40;;;2.80;98.20;;;;;;6205662;28;20030;-77
2021/01/28 06:21:56;;;;;;;4.68;3.22;;;3.00;98.80;;;;;;6223234;28;20026;-78
2021/01/28 06:25:22;;;;;;;4.25;3.30;;;3.00;99.30;;;;;;6210658;28;20045;-77
2021/01/28 06:28:31;;;;;;;7.03;3.40;;;3.00;98.10;;;;;;6222748;28;20046;-76
2021/01/28 06:31:54;;;;;;;4.68;3.67;;;2.90;99.90;;;;;;6222715;28;20037;-78
2021/01/28 06:35:06;;;;;;;4.50;3.92;;;3.40;99.90;;;;;;6219312;28;20025;-78
2021/01/28 06:38:30;;;;;;;4.25;3.40;;;3.10;99.90;;;;;;6246310;28;20029;-79
2021/01/28 06:41:34;;;;;;;3.47;3.17;;;3.20;98.40;;;;;;6199493;28;20088;-80
2021/01/28 06:44:41;;;;;;;4.03;3.15;;;3.10;99.60;;;;;;6212355;28;20060;-77
2021/01/28 06:48:03;;;;;;;3.20;2.90;;;3.10;97.90;;;;;;6189969;28;20033;-76
2021/01/28 06:51:24;;;;;;;5.57;3.50;;;3.20;99.00;;;;;;6189154;28;20137;-79
2021/01/28 06:54:34;;;;;;;3.22;2.83;;;3.10;98.70;;;;;;6203865;28;20659;-78
2021/01/28 06:57:42;;;;;;;5.10;3.28;;;3.20;98.20;;;;;;6213689;28;20029;-76
2021/01/28 07:00:49;;;;;;;3.90;3.42;;;3.90;99.40;;;;;;6212135;28;20485;-78
2021/01/28 07:03:56;;;;;;;4.25;3.38;;;3.10;99.20;;;;;;6192784;28;20462;-77
2021/01/28 07:07:04;;;;;;;4.15;3.50;;;3.30;99.90;;;;;;6227997;28;20103;-73
2021/01/28 07:10:25;;;;;;;4.72;4.10;;;3.60;98.80;;;;;;6209735;28;20132;-79
2021/01/28 07:13:33;;;;;;;3.80;3.50;;;3.40;99.20;;;;;;6188676;28;20031;-79
2021/01/28 07:16:41;;;;;;;6.68;5.10;;;3.40;98.80;;;;;;6189209;28;20022;-80
2021/01/28 07:19:49;;;;;;;5.93;3.72;;;3.40;99.90;;;;;;6188906;28;20030;-79
2021/01/28 07:22:49;;;;;;;5.53;3.58;;;3.20;99.90;;;;;;6191835;28;20554;-82
2021/01/28 07:25:51;;;;;;;6.03;4.55;;;3.70;99.90;;;;;;6202968;28;20025;-79
2021/01/28 07:28:52;;;;;;;8.37;4.97;;;3.70;99.90;;;;;;6211399;28;20033;-77
2021/01/28 07:31:52;;;;;;;6.25;3.80;;;3.90;99.90;;;;;;6210472;28;20303;-79
2021/01/28 07:35:34;;;;;;;5.30;3.15;;;4.00;99.90;;;;;;6227454;28;20040;-79
2021/01/28 07:38:39;;;;;;;2.70;2.33;;;4.30;99.90;;;;;;6206965;28;20025;-80
2021/01/28 07:41:52;;;;;;;2.88;2.58;;;4.40;99.90;;;;;;6187057;28;20052;-80
2021/01/28 07:44:57;;;;;;;2.35;1.90;;;4.90;99.90;;;;;;6188838;28;20399;-79
2021/01/28 07:47:59;;;;;;;1.40;1.30;;;5.00;99.90;;;;;;6183581;28;20038;-80
2021/01/28 07:51:27;;;;;;;1.27;0.93;;;5.40;99.90;;;;;;6185510;28;20026;-81
2021/01/28 07:54:28;;;;;;;0.75;0.68;;;6.30;99.90;;;;;;6222532;28;20108;-80
2021/01/28 07:57:45;;;;;;;0.63;0.63;;;5.90;99.90;;;;;;6219824;28;20034;-80
2021/01/28 08:00:46;;;;;;;0.70;0.70;;;;;;;;;;6202246;28;20042;-81
2021/01/28 08:04:06;;;;;;;1.60;1.50;;;7.10;99.90;;;;;;6201833;28;20126;-81
2021/01/28 08:07:08;;;;;;;1.88;1.77;;;6.90;97.80;;;;;;6201938;28;20030;-80
2021/01/28 08:10:18;;;;;;;2.40;2.20;;;7.20;99.90;;;;;;6200303;28;20050;-80
2021/01/28 08:13:28;;;;;;;0.57;0.57;;;7.00;97.00;;;;;;6220196;28;20152;-80
2021/01/28 08:16:29;;;;;;;5.40;3.97;;;7.00;97.00;;;;;;6217940;28;20030;-80
2021/01/28 08:19:29;;;;;;;1.20;1.15;;;7.10;96.90;;;;;;6213448;28;20037;-79
2021/01/28 08:22:30;;;;;;;0.20;0.20;;;7.20;96.60;;;;;;6222567;28;20029;-80
2021/01/28 08:25:34;;;;;;;0.40;0.40;;;7.30;96.70;;;;;;6202769;28;20152;-80
2021/01/28 08:28:36;;;;;;;0.70;0.60;;;7.30;96.60;;;;;;6202904;28;20034;-80
2021/01/28 08:31:38;;;;;;;;;;;7.40;96.70;;;;;;6229099;28;20025;-80
2021/01/28 08:34:39;;;;;;;0.60;0.52;;;7.50;96.30;;;;;;6234310;28;19910;-80
2021/01/28 08:37:42;;;;;;;1.67;1.58;;;7.50;96.40;;;;;;6200960;28;20080;-80
2021/01/28 08:40:47;;;;;;;2.00;1.77;;;7.60;96.60;;;;;;6235263;28;20070;-81
2021/01/28 08:43:58;;;;;;;1.08;0.98;;;7.60;96.20;;;;;;6219089;28;20488;-79
2021/01/28 08:47:09;;;;;;;0.30;0.30;;;7.60;96.40;;;;;;6229446;28;20442;-80
2021/01/28 08:50:15;;;;;;;0.75;0.70;;;7.70;96.30;;;;;;6217554;28;20046;-80
2021/01/28 08:53:20;;;;;;;0.43;0.43;;;7.80;96.10;;;;;;6201413;28;20037;-81
2021/01/28 08:56:23;;;;;;;0.60;0.60;;;7.90;96.10;;;;;;6202524;28;20022;-81
2021/01/28 08:59:45;;;;;;;0.60;0.60;;;8.00;95.70;;;;;;6201094;28;20547;-80
2021/01/28 09:02:47;;;;;;;1.48;1.38;;;8.10;96.00;;;;;;6217244;28;20503;-81
2021/01/28 09:05:48;;;;;;;1.63;1.52;;;8.20;95.80;;;;;;6201578;28;20037;-80
2021/01/28 09:08:59;;;;;;;1.17;1.15;;;8.10;95.80;;;;;;6213447;28;20060;-80
2021/01/28 09:12:28;;;;;;;1.50;1.40;;;8.20;95.60;;;;;;6239883;28;20041;-81
2021/01/28 09:15:30;;;;;;;3.13;2.60;;;8.40;95.30;;;;;;6218041;28;20033;-80
2021/01/28 09:18:33;;;;;;;1.90;1.77;;;8.40;95.60;;;;;;6200289;28;20464;-81
2021/01/28 09:21:39;;;;;;;5.10;4.22;;;8.40;95.70;;;;;;6204998;28;20036;-81
2021/01/28 09:24:47;;;;;;;2.55;2.35;;;8.60;95.60;;;;;;6224184;28;20041;-81
2021/01/28 09:28:04;;;;;;;2.90;2.60;;;8.60;99.90;;;;;;6224681;28;20029;-81
2021/01/28 09:31:24;;;;;;;1.30;1.30;;;8.50;95.50;;;;;;6241031;28;20076;-80
2021/01/28 09:34:27;;;;;;;0.82;0.82;;;8.80;99.90;;;;;;6217862;28;20053;-81
2021/01/28 09:37:28;;;;;;;3.28;2.92;;;8.80;99.90;;;;;;6222583;28;20034;-82
2021/01/28 09:40:33;;;;;;;1.25;1.15;;;9.00;99.90;;;;;;6224638;28;20115;-81
2021/01/28 09:43:34;;;;;;;1.60;1.50;;;8.90;99.90;;;;;;6240720;28;20083;-81
2021/01/28 09:46:34;;;;;;;2.17;2.08;;;8.80;99.90;;;;;;6224341;28;20037;-82
2021/01/28 09:49:35;;;;;;;1.58;1.48;;;9.10;99.90;;;;;;6220586;28;20037;-92
2021/01/28 09:52:47;;;;;;;1.30;1.30;;;9.10;96.50;;;;;;6210851;28;20460;-88
2021/01/28 09:55:51;;;;;;;1.10;1.10;;;9.10;95.20;;;;;;6212304;28;20379;-87
2021/01/28 09:58:52;;;;;;;0.98;0.98;;;8.90;96.70;;;;;;6216045;28;20029;-92
2021/01/28 10:01:52;;;;;;;1.00;1.00;;;9.00;97.10;;;;;;6214143;28;20672;-85
2021/01/28 10:04:53;;;;;;;1.55;1.00;;;9.10;96.80;;;;;;6212122;28;20072;-87
2021/01/28 10:07:54;;;;;;;0.85;0.85;;;;;;;;;;6211714;28;20149;-89
2021/01/28 10:10:55;;;;;;;0.80;0.80;;;9.20;95.10;;;;;;6213428;28;20120;-87
2021/01/28 10:13:55;;;;;;;1.10;0.88;;;9.10;97.00;;;;;;6197938;28;20047;-89
2021/01/28 10:16:56;;;;;;;1.33;0.93;;;9.20;96.90;;;;;;6195921;28;20026;-85
2021/01/28 10:20:25;;;;;;;1.08;0.90;;;9.20;97.00;;;;;;6191022;28;20117;-89
2021/01/28 10:23:26;;;;;;;1.75;1.65;;;11.50;96.10;;;;;;6204338;28;20038;-88
2021/01/28 10:27:01;;;;;;;1.10;1.10;;;9.10;96.80;;;;;;6206612;28;20029;-84
2021/01/28 10:30:03;;;;;;;1.25;1.15;;;9.10;99.90;;;;;;6218737;28;20615;-81
2021/01/28 10:33:04;;;;;;;0.93;0.93;;;9.40;99.90;;;;;;6199576;28;20022;-81
2021/01/28 10:36:06;;;;;;;1.65;1.55;;;9.10;99.90;;;;;;6211200;28;20045;-80
2021/01/28 10:43:05;;;;;;;0.80;0.70;;;11.10;99.90;;;;;;6241454;28;20030;-80
2021/01/28 10:46:06;;;;;;;0.95;0.95;;;9.40;96.40;;;;;;6212005;28;20044;-81
2021/01/28 10:49:06;;;;;;;1.60;1.50;;;11.60;96.70;;;;;;6212086;28;20029;-80
2021/01/28 10:59:23;;;;;;;0.82;0.82;;;9.50;96.00;;;;;;7482339;22;20423;-81
2021/01/28 11:02:23;;;;;;;0.90;0.90;;;9.30;96.00;;;;;;6226246;28;20079;-82
2021/01/28 11:05:28;;;;;;;1.50;1.05;;;9.30;96.10;;;;;;6220616;28;20041;-82
2021/01/28 11:08:30;;;;;;;1.10;1.08;;;9.30;99.90;;;;;;6220455;28;20097;-81
2021/01/28 11:11:31;;;;;;;2.30;0.90;;;9.40;95.70;;;;;;6204063;28;20017;-81
2021/01/28 11:14:32;;;;;;;0.60;0.60;;;;;;;;;;6203889;28;20048;-83
2021/01/28 11:17:33;;;;;;;2.05;1.30;;;9.50;95.00;;;;;;6220162;28;20382;-83
2021/01/28 11:20:34;;;;;;;0.90;0.90;;;9.60;95.40;;;;;;6204066;28;20030;-84
2021/01/28 11:23:35;;;;;;;0.77;0.77;;;10.20;95.60;;;;;;6204033;28;20091;-83
2021/01/28 11:26:35;;;;;;;0.90;0.90;;;9.70;94.90;;;;;;6205251;28;20387;-83
2021/01/28 11:29:36;;;;;;;0.55;0.55;;;9.70;95.00;;;;;;6203689;28;20034;-85
2021/01/28 11:32:36;;;;;;;0.77;0.77;;;9.80;94.80;;;;;;6204045;28;20387;-84
2021/01/28 11:35:37;;;;;;;0.70;0.70;;;9.70;95.00;;;;;;6204039;28;20033;-84
2021/01/28 11:38:38;;;;;;;0.80;0.80;;;9.80;94.50;;;;;;6219713;28;20041;-85
2021/01/28 11:41:39;;;;;;;0.90;0.90;;;9.90;94.60;;;;;;6203828;28;20026;-90
2021/01/28 11:44:39;;;;;;;0.50;0.50;;;10.00;94.10;;;;;;6204615;28;20037;-83
2021/01/28 11:47:40;;;;;;;0.65;0.65;;;10.00;94.00;;;;;;6203362;28;20029;-86
2021/01/28 11:50:41;;;;;;;0.82;0.82;;;10.10;94.20;;;;;;6203772;28;20026;-85
2021/01/28 11:53:42;;;;;;;0.40;0.40;;;10.20;94.20;;;;;;6204242;28;20029;-86
2021/01/28 11:56:43;;;;;;;0.80;0.80;;;10.20;94.20;;;;;;6203791;28;20372;-85
2021/01/28 11:59:43;;;;;;;0.60;0.60;;;10.20;94.30;;;;;;6204590;28;20054;-87
2021/01/28 12:02:45;;;;;;;0.63;0.63;;;10.10;94.00;;;;;;6171769;28;20371;-89
2021/01/28 12:05:46;;;;;;;0.88;0.88;;;10.10;94.10;;;;;;6187928;28;20037;-85
2021/01/28 12:08:46;;;;;;;1.27;1.17;;;10.40;94.20;;;;;;6186337;28;20391;-88
2021/01/28 12:11:47;;;;;;;1.88;1.67;;;10.20;94.00;;;;;;6186956;28;20026;-83
2021/01/28 12:14:48;;;;;;;1.50;1.42;;;10.20;93.70;;;;;;6202821;28;20395;-85
2021/01/28 12:17:49;;;;;;;1.23;1.13;;;10.30;93.80;;;;;;6187644;28;20026;-86
2021/01/28 12:20:49;;;;;;;2.15;2.00;;;10.40;94.00;;;;;;6187125;28;20030;-86
2021/01/28 12:23:50;;;;;;;1.38;1.20;;;10.20;93.60;;;;;;6186813;28;20038;-87
2021/01/28 12:26:52;;;;;;;1.35;0.77;;;10.30;93.40;;;;;;6195232;28;20083;-85
2021/01/28 12:29:53;;;;;;;;;;;10.40;93.70;;;;;;6188380;28;20030;-85
2021/01/28 12:32:54;;;;;;;1.00;1.00;;;10.40;94.30;;;;;;6203387;28;20310;-84
2021/01/28 12:35:54;;;;;;;2.58;2.38;;;10.30;94.40;;;;;;6186210;28;20030;-88
2021/01/28 12:38:55;;;;;;;0.80;0.80;;;10.40;94.00;;;;;;6171312;28;20061;-87
2021/01/28 12:41:56;;;;;;;1.08;0.68;;;10.30;94.00;;;;;;6187294;28;20030;-89
2021/01/28 12:44:56;;;;;;;1.63;1.52;;;10.40;94.60;;;;;;6186122;28;20048;-85
2021/01/28 12:47:58;;;;;;;1.55;1.45;;;10.50;93.80;;;;;;6185853;28;20029;-86
2021/01/28 12:51:01;;;;;;;1.60;1.50;;;10.60;93.80;;;;;;6185807;28;20376;-86
2021/01/28 12:54:02;;;;;;;2.08;1.58;;;11.20;94.00;;;;;;6169812;28;20034;-85
2021/01/28 12:57:03;;;;;;;1.33;1.27;;;10.60;93.70;;;;;;6185388;28;20026;-85
2021/01/28 13:00:05;;;;;;;0.60;0.60;;;10.60;93.20;;;;;;6187503;28;20128;-87
2021/01/28 13:03:06;;;;;;;2.13;1.88;;;11.10;92.80;;;;;;6202389;28;20034;-86
2021/01/28 13:06:06;;;;;;;1.95;1.75;;;10.50;93.10;;;;;;6202597;28;20498;-87
2021/01/28 13:09:07;;;;;;;2.67;2.30;;;10.70;93.00;;;;;;6201849;28;20034;-84
2021/01/28 13:12:08;;;;;;;2.92;1.90;;;10.90;92.50;;;;;;6202605;28;20034;-86
2021/01/28 13:15:11;;;;;;;2.33;1.60;;;10.90;92.20;;;;;;6201842;28;20022;-90
2021/01/28 13:18:12;;;;;;;0.70;0.70;;;11.00;91.70;;;;;;6202838;28;20029;-84
2021/01/28 13:21:13;;;;;;;0.90;0.90;;;11.20;96.70;;;;;;6202487;28;20374;-86
2021/01/28 13:24:13;;;;;;;1.20;1.20;;;11.00;96.80;;;;;;6201214;28;20053;-84
2021/01/28 13:27:20;;;;;;;19.02;1.85;;;11.00;96.80;;;;;;6201347;28;20033;-86
2021/01/28 13:30:22;;;;;;;1.70;1.60;;;11.40;96.70;;;;;;6201090;28;20034;-84
2021/01/28 13:33:22;;;;;;;0.93;0.93;;;11.40;96.30;;;;;;6202446;28;20097;-86
2021/01/28 13:36:23;;;;;;;2.47;1.08;;;11.50;96.50;;;;;;6201562;28;20269;-86
2021/01/28 13:39:24;;;;;;;0.85;0.85;;;11.20;95.80;;;;;;6201911;28;20388;-86
2021/01/28 13:42:26;;;;;;;1.10;1.10;;;11.60;96.40;;;;;;6201509;28;20101;-86
2021/01/28 13:45:27;;;;;;;1.15;1.05;;;11.30;96.30;;;;;;6201321;28;20088;-86
2021/01/28 13:48:30;;;;;;;1.00;1.00;;;11.50;96.40;;;;;;6201382;28;20034;-86
2021/01/28 13:51:31;;;;;;;1.67;1.40;;;11.30;96.20;;;;;;6201782;28;20049;-86
2021/01/28 13:54:32;;;;;;;1.00;1.00;;;11.40;96.60;;;;;;6217633;28;20145;-85
2021/01/28 13:57:32;;;;;;;0.95;0.95;;;11.40;96.60;;;;;;6201248;28;20031;-83
2021/01/28 14:00:33;;;;;;;1.08;1.08;;;11.30;91.50;;;;;;6184737;28;20427;-84
2021/01/28 14:03:34;;;;;;;1.00;1.00;;;11.30;91.60;;;;;;6201479;28;20093;-84
2021/01/28 14:06:34;;;;;;;1.23;1.20;;;11.30;91.40;;;;;;6203938;28;20113;-86
2021/01/28 14:09:35;;;;;;;2.30;1.88;;;11.30;91.70;;;;;;6205712;28;20108;-83
2021/01/28 14:12:37;;;;;;;0.80;0.80;;;11.20;92.10;;;;;;6205925;28;20026;-82
2021/01/28 14:15:38;;;;;;;0.80;0.80;;;11.20;92.20;;;;;;6205835;28;20095;-86
2021/01/28 14:18:40;;;;;;;0.80;0.80;;;11.10;92.40;;;;;;6206125;28;20030;-84
2021/01/28 14:21:42;;;;;;;0.90;0.90;;;11.20;92.10;;;;;;6190226;28;20026;-85
2021/01/28 14:24:42;;;;;;;0.90;0.90;;;11.20;91.90;;;;;;6183338;28;20037;-86
2021/01/28 14:27:43;;;;;;;1.20;1.20;;;11.20;91.90;;;;;;6189155;28;20038;-82
2021/01/28 14:30:43;;;;;;;0.98;0.98;;;11.20;91.80;;;;;;6221430;28;20022;-79
2021/01/28 14:33:44;;;;;;;1.15;1.15;;;11.20;91.90;;;;;;6204876;28;20753;-79
2021/01/28 14:36:45;;;;;;;0.82;0.82;;;11.20;91.60;;;;;;6221856;28;20112;-83
2021/01/28 14:39:45;;;;;;;0.75;0.75;;;11.20;91.70;;;;;;6205146;28;20060;-86
2021/01/28 14:42:46;;;;;;;0.90;0.90;;;11.20;91.70;;;;;;6204929;28;20494;-83
2021/01/28 14:45:48;;;;;;;0.80;0.80;;;11.20;91.50;;;;;;6204631;28;20087;-84
2021/01/28 14:48:48;;;;;;;0.80;0.80;;;11.30;91.20;;;;;;6203871;28;20036;-82
2021/01/28 14:51:49;;;;;;;1.00;0.95;;;11.40;91.30;;;;;;6204671;28;20408;-83
2021/01/28 14:54:50;;;;;;;0.70;0.70;;;11.40;91.50;;;;;;6204924;28;20033;-82
2021/01/28 14:57:52;;;;;;;0.95;0.82;;;11.30;91.60;;;;;;6204820;28;20482;-86
2021/01/28 15:00:53;;;;;;;0.70;0.70;;;11.00;91.50;;;;;;6204713;28;20053;-84
2021/01/28 15:03:53;;;;;;;0.90;0.85;;;11.30;91.70;;;;;;6204250;28;20081;-82
2021/01/28 15:06:54;;;;;;;0.80;0.80;;;11.30;91.90;;;;;;6204695;28;20026;-84
2021/01/28 15:09:55;;;;;;;1.63;1.52;;;11.30;91.10;;;;;;6188388;28;20037;-82
2021/01/28 15:12:55;;;;;;;1.05;1.05;;;11.40;91.40;;;;;;6204904;28;20030;-85
2021/01/28 15:15:56;;;;;;;1.50;1.40;;;11.40;91.20;;;;;;6187058;28;20022;-81
2021/01/28 15:18:56;;;;;;;3.00;2.35;;;11.40;91.20;;;;;;6204482;28;20026;-82
2021/01/28 15:21:57;;;;;;;1.30;1.20;;;11.40;91.00;;;;;;6203927;28;20108;-78
2021/01/28 15:24:58;;;;;;;1.70;1.60;;;11.40;91.10;;;;;;6215141;28;20037;-87
2021/01/28 15:28:00;;;;;;;1.60;1.50;;;11.50;91.70;;;;;;6202302;28;20391;-85
2021/01/28 15:31:01;;;;;;;1.48;1.38;;;12.20;91.20;;;;;;6203094;28;20529;-86
2021/01/28 15:34:02;;;;;;;0.68;0.68;;;11.50;90.70;;;;;;6204186;28;20042;-88
2021/01/28 15:37:03;;;;;;;7.20;2.38;;;11.50;91.10;;;;;;6187923;28;20522;-77
2021/01/28 15:40:15;;;;;;;1.10;1.10;;;11.50;91.20;;;;;;6221804;28;20108;-87
2021/01/28 15:43:16;;;;;;;2.13;1.17;;;13.00;90.70;;;;;;6204821;28;20042;-87
2021/01/28 15:46:16;;;;;;;1.48;1.38;;;11.50;91.60;;;;;;6203836;28;20072;-88
2021/01/28 15:49:32;;;;;;;1.25;1.15;;;11.30;92.70;;;;;;6204033;28;20049;-90
2021/01/28 15:52:33;;;;;;;0.90;0.90;;;13.90;92.10;;;;;;6202430;28;20042;-88
2021/01/28 15:55:33;;;;;;;0.73;0.73;;;13.60;93.70;;;;;;6203354;28;20080;-85
2021/01/28 15:58:34;;;;;;;1.15;1.10;;;11.30;91.90;;;;;;6202842;28;20033;-83
2021/01/28 16:01:35;;;;;;;1.08;0.98;;;11.20;91.90;;;;;;6202761;28;20058;-85
2021/01/28 16:04:36;;;;;;;0.90;0.90;;;11.20;92.20;;;;;;6202528;28;20044;-85
2021/01/28 16:07:36;;;;;;;1.90;1.80;;;11.20;92.20;;;;;;6202111;28;20802;-85
2021/01/28 16:10:38;;;;;;;2.42;2.10;;;11.10;91.80;;;;;;6201544;28;20029;-86
2021/01/28 16:13:39;;;;;;;1.15;1.05;;;11.20;91.50;;;;;;6201911;28;20029;-88
2021/01/28 16:16:40;;;;;;;2.45;1.80;;;11.20;91.90;;;;;;6202944;28;20088;-85
2021/01/28 16:19:41;;;;;;;1.15;1.10;;;11.20;91.40;;;;;;6202874;28;20468;-87
2021/01/28 16:22:42;;;;;;;0.68;0.68;;;11.20;91.80;;;;;;6202676;28;20092;-86